createdAt,value
2023-01-03T00:01:49.968Z,11.65
2023-01-03T00:04:18.022Z,12.15
2023-01-03T00:06:51.997Z,11.25
2023-01-03T00:09:22.984Z,11.63
2023-01-03T00:12:18.386Z,11.05
2023-01-03T00:14:45.879Z,11.23
2023-01-03T00:17:13.714Z,10.93
2023-01-03T00:19:44.019Z,11.60
2023-01-03T00:22:12.620Z,10.70
2023-01-03T00:24:40.441Z,11.32
2023-01-03T00:27:08.582Z,11.43
2023-01-03T00:29:36.452Z,11.15
2023-01-03T00:32:04.511Z,10.50
2023-01-03T00:34:32.562Z,9.95
2023-01-03T00:36:59.808Z,11.48
2023-01-03T00:39:27.397Z,10.90
2023-01-03T00:41:54.924Z,11.10
2023-01-03T00:44:22.508Z,11.93
2023-01-03T00:46:49.600Z,10.77
2023-01-03T00:49:17.133Z,10.00
2023-01-03T00:51:44.641Z,10.10
2023-01-03T00:54:13.611Z,10.70
2023-01-03T00:56:43.192Z,9.57
2023-01-03T00:59:12.156Z,9.70
2023-01-03T01:01:47.123Z,11.00
2023-01-03T01:04:20.550Z,9.43
2023-01-03T01:07:01.927Z,9.57
2023-01-03T01:09:35.482Z,9.48
2023-01-03T01:12:03.529Z,9.07
2023-01-03T01:14:33.474Z,9.35
2023-01-03T01:17:06.328Z,9.20
2023-01-03T01:19:36.885Z,9.45
2023-01-03T01:22:04.908Z,9.60
2023-01-03T01:24:32.964Z,9.55
2023-01-03T01:27:00.243Z,9.18
2023-01-03T01:29:27.769Z,10.48
2023-01-03T01:31:54.946Z,9.40
2023-01-03T01:34:22.581Z,9.90
2023-01-03T01:36:49.930Z,8.60
2023-01-03T01:39:20.615Z,9.20
2023-01-03T01:42:08.179Z,8.77
2023-01-03T01:44:55.384Z,8.73
2023-01-03T01:47:43.945Z,8.73
2023-01-03T01:50:40.338Z,8.68
2023-01-03T01:53:29.013Z,8.68
2023-01-03T01:56:11.101Z,9.63
2023-01-03T01:58:41.289Z,8.95
2023-01-03T02:01:15.470Z,8.98
2023-01-03T02:03:45.333Z,8.70
2023-01-03T02:06:15.589Z,8.32
2023-01-03T02:08:42.851Z,8.15
2023-01-03T02:11:31.433Z,9.02
2023-01-03T02:14:29.434Z,7.88
2023-01-03T02:17:08.610Z,8.48
2023-01-03T02:19:47.802Z,8.35
2023-01-03T02:22:20.721Z,7.40
2023-01-03T02:25:15.909Z,6.13
2023-01-03T02:28:17.580Z,5.13
2023-01-03T02:30:57.604Z,4.57
2023-01-03T02:33:31.014Z,4.20
2023-01-03T02:36:20.220Z,3.92
2023-01-03T02:39:02.985Z,3.08
2023-01-03T02:41:46.607Z,2.15
2023-01-03T02:44:31.119Z,2.10
2023-01-03T02:47:09.376Z,1.85
2023-01-03T02:49:44.761Z,1.88
2023-01-03T02:52:15.601Z,1.55
2023-01-03T02:55:02.776Z,1.60
2023-01-03T02:57:41.100Z,1.60
2023-01-03T03:00:15.432Z,1.30
2023-01-03T03:02:50.100Z,1.55
2023-01-03T03:05:28.348Z,1.27
2023-01-03T03:07:55.558Z,1.00
2023-01-03T03:10:42.362Z,1.20
2023-01-03T03:13:54.364Z,1.40
2023-01-03T03:16:43.163Z,1.30
2023-01-03T03:19:38.718Z,1.40
2023-01-03T03:22:46.883Z,1.27
2023-01-03T03:25:22.031Z,1.27
2023-01-03T03:28:10.998Z,1.20
2023-01-03T03:30:40.990Z,1.33
2023-01-03T03:33:11.799Z,1.40
2023-01-03T03:35:49.510Z,1.27
2023-01-03T03:38:24.554Z,1.20
2023-01-03T03:41:28.625Z,1.38
2023-01-03T03:44:33.579Z,1.30
2023-01-03T03:47:24.252Z,1.30
2023-01-03T03:49:54.350Z,1.60
2023-01-03T03:52:27.433Z,1.40
2023-01-03T03:55:10.181Z,1.90
2023-01-03T03:57:51.483Z,1.58
2023-01-03T04:00:24.373Z,1.40
2023-01-03T04:02:54.275Z,1.50
2023-01-03T04:05:24.863Z,1.73
2023-01-03T04:07:52.079Z,1.70
2023-01-03T04:10:23.636Z,1.60
2023-01-03T04:12:52.069Z,1.88
2023-01-03T04:15:19.589Z,1.77
2023-01-03T04:17:47.029Z,1.90
2023-01-03T04:20:15.203Z,1.63
2023-01-03T04:22:42.429Z,1.75
2023-01-03T04:25:10.017Z,1.80
2023-01-03T04:27:37.311Z,1.40
2023-01-03T04:30:05.864Z,1.63
2023-01-03T04:32:33.243Z,1.52
2023-01-03T04:35:00.653Z,1.50
2023-01-03T04:37:27.838Z,1.90
2023-01-03T04:39:55.341Z,1.63
2023-01-03T04:42:41.082Z,1.83
2023-01-03T04:45:09.536Z,2.38
2023-01-03T04:47:36.772Z,1.90
2023-01-03T04:50:04.609Z,2.10
2023-01-03T04:52:32.715Z,1.70
2023-01-03T04:55:00.171Z,1.92
2023-01-03T04:57:27.281Z,2.10
2023-01-03T04:59:54.759Z,2.30
2023-01-03T05:02:21.950Z,2.90
2023-01-03T05:04:49.347Z,2.35
2023-01-03T05:07:16.511Z,2.33
2023-01-03T05:09:44.225Z,3.28
2023-01-03T05:12:12.375Z,3.08
2023-01-03T05:14:41.637Z,3.65
2023-01-03T05:17:09.275Z,2.63
2023-01-03T05:19:56.650Z,2.85
2023-01-03T05:22:42.632Z,2.30
2023-01-03T05:25:29.362Z,2.42
2023-01-03T05:27:57.742Z,2.30
2023-01-03T05:30:25.717Z,2.08
2023-01-03T05:32:52.913Z,2.30
2023-01-03T05:35:20.397Z,2.17
2023-01-03T05:37:47.592Z,2.60
2023-01-03T05:40:15.047Z,2.67
2023-01-03T05:42:42.207Z,2.28
2023-01-03T05:45:10.162Z,2.40
2023-01-03T05:47:37.269Z,2.25
2023-01-03T05:50:05.171Z,2.25
2023-01-03T05:52:32.296Z,2.47
2023-01-03T05:54:59.850Z,1.85
2023-01-03T05:57:31.793Z,1.98
2023-01-03T06:00:04.333Z,2.80
2023-01-03T06:02:32.860Z,2.60
2023-01-03T06:05:00.702Z,3.00
2023-01-03T06:07:30.182Z,2.30
2023-01-03T06:09:57.596Z,2.78
2023-01-03T06:12:27.055Z,2.17
2023-01-03T06:14:54.717Z,2.05
2023-01-03T06:17:40.530Z,2.25
2023-01-03T06:20:08.601Z,2.10
2023-01-03T06:22:36.383Z,2.10
2023-01-03T06:25:03.949Z,2.30
2023-01-03T06:27:31.242Z,2.50
2023-01-03T06:29:59.662Z,2.13
2023-01-03T06:32:26.968Z,2.70
2023-01-03T06:34:54.383Z,2.90
2023-01-03T06:37:21.832Z,3.97
2023-01-03T06:39:49.272Z,5.22
2023-01-03T06:42:34.832Z,6.20
2023-01-03T06:45:21.163Z,5.70
2023-01-03T06:48:06.818Z,4.45
2023-01-03T06:50:52.643Z,4.20
2023-01-03T06:53:22.761Z,3.50
2023-01-03T06:55:56.653Z,3.13
2023-01-03T06:58:24.959Z,2.78
2023-01-03T07:00:53.600Z,3.22
2023-01-03T07:03:21.717Z,2.95
2023-01-03T07:05:49.549Z,2.80
2023-01-03T07:08:16.766Z,3.10
2023-01-03T07:10:44.180Z,2.97
2023-01-03T07:13:29.970Z,4.28
2023-01-03T07:15:57.546Z,4.10
2023-01-03T07:18:26.350Z,3.97
2023-01-03T07:20:54.628Z,3.30
2023-01-03T07:23:21.864Z,3.53
2023-01-03T07:25:49.374Z,4.82
2023-01-03T07:28:17.430Z,5.72
2023-01-03T07:30:46.526Z,5.05
2023-01-03T07:33:15.705Z,20.40
2023-01-03T07:35:43.467Z,7.68
2023-01-03T07:38:12.192Z,6.15
2023-01-03T07:40:40.461Z,4.18
2023-01-03T07:43:29.464Z,17.50
2023-01-03T07:45:57.175Z,4.00
2023-01-03T07:48:24.340Z,6.88
2023-01-03T07:50:57.616Z,5.15
2023-01-03T07:53:24.814Z,4.20
2023-01-03T07:55:52.272Z,6.03
2023-01-03T07:58:19.633Z,5.90
2023-01-03T08:00:47.127Z,4.43
2023-01-03T08:03:15.713Z,7.50
2023-01-03T08:05:43.445Z,15.90
2023-01-03T08:08:11.132Z,4.55
2023-01-03T08:10:57.256Z,10.52
2023-01-03T08:13:25.252Z,7.95
2023-01-03T08:15:55.550Z,3.80
2023-01-03T08:18:26.127Z,3.17
2023-01-03T08:20:55.697Z,3.78
2023-01-03T08:23:26.644Z,5.20
2023-01-03T08:26:03.978Z,3.40
2023-01-03T08:28:31.143Z,3.50
2023-01-03T08:31:02.325Z,3.40
2023-01-03T08:33:34.482Z,3.83
2023-01-03T08:36:06.454Z,3.92
2023-01-03T08:38:38.097Z,17.10
2023-01-03T08:41:09.835Z,3.60
2023-01-03T08:43:41.130Z,3.63
2023-01-03T08:46:11.416Z,4.70
2023-01-03T08:48:38.892Z,3.42
2023-01-03T08:51:06.454Z,3.33
2023-01-03T08:53:33.496Z,4.40
2023-01-03T08:56:01.021Z,7.32
2023-01-03T08:58:28.230Z,3.75
2023-01-03T09:00:55.779Z,4.25
2023-01-03T09:03:22.996Z,4.78
2023-01-03T09:05:50.578Z,3.55
2023-01-03T09:08:18.461Z,3.70
2023-01-03T09:10:47.937Z,3.80
2023-01-03T09:13:15.207Z,3.78
2023-01-03T09:15:42.525Z,4.95
2023-01-03T09:18:09.664Z,4.00
2023-01-03T09:20:36.965Z,4.47
2023-01-03T09:23:04.050Z,3.80
2023-01-03T09:25:36.729Z,3.80
2023-01-03T09:28:04.438Z,4.13
2023-01-03T09:30:31.761Z,3.35
2023-01-03T09:32:58.813Z,3.47
2023-01-03T09:35:26.112Z,3.35
2023-01-03T09:37:53.244Z,4.13
2023-01-03T09:40:20.587Z,3.20
2023-01-03T09:43:06.273Z,3.03
2023-01-03T09:45:34.956Z,3.08
2023-01-03T09:48:05.078Z,3.65
2023-01-03T09:51:14.212Z,3.00
2023-01-03T09:53:51.627Z,2.97
2023-01-03T09:56:37.785Z,2.55
2023-01-03T09:59:32.149Z,2.17
2023-01-03T10:02:47.923Z,2.30
2023-01-03T10:05:35.439Z,1.90
2023-01-03T10:08:10.785Z,1.75
2023-01-03T10:11:02.480Z,1.90
2023-01-03T10:13:58.490Z,1.50
2023-01-03T10:16:34.707Z,1.58
2023-01-03T10:19:24.980Z,1.73
2023-01-03T10:22:12.962Z,1.70
2023-01-03T10:24:50.353Z,1.92
2023-01-03T10:27:19.329Z,3.42
2023-01-03T10:29:47.358Z,1.85
2023-01-03T10:32:17.185Z,2.00
2023-01-03T10:34:44.616Z,2.58
2023-01-03T10:37:19.399Z,2.15
2023-01-03T10:39:46.736Z,2.28
2023-01-03T10:42:18.642Z,2.00
2023-01-03T10:44:59.910Z,2.58
2023-01-03T10:47:27.504Z,2.40
2023-01-03T10:50:02.860Z,2.70
2023-01-03T10:52:38.880Z,3.20
2023-01-03T10:55:13.692Z,2.85
2023-01-03T10:58:01.235Z,2.65
2023-01-03T11:00:37.780Z,3.97
2023-01-03T11:03:17.126Z,2.58
2023-01-03T11:05:47.848Z,2.40
2023-01-03T11:08:21.465Z,2.25
2023-01-03T11:10:52.489Z,1.98
2023-01-03T11:13:37.702Z,2.10
2023-01-03T11:16:15.755Z,2.22
2023-01-03T11:19:00.939Z,2.10
2023-01-03T11:21:45.030Z,2.00
2023-01-03T11:24:15.251Z,2.83
2023-01-03T11:26:56.621Z,2.33
2023-01-03T11:29:43.319Z,2.92
2023-01-03T11:32:57.525Z,3.13
2023-01-03T11:36:05.646Z,2.03
2023-01-03T11:38:56.006Z,2.28
2023-01-03T11:41:34.693Z,1.80
2023-01-03T11:44:23.459Z,1.80
2023-01-03T11:47:28.545Z,1.98
2023-01-03T11:50:02.299Z,2.05
2023-01-03T11:52:52.066Z,1.60
2023-01-03T11:55:40.405Z,1.65
2023-01-03T11:58:25.146Z,1.60
2023-01-03T12:01:20.115Z,1.80
2023-01-03T12:03:59.469Z,2.08
2023-01-03T12:06:42.161Z,2.22
2023-01-03T12:09:12.009Z,2.03
2023-01-03T12:11:57.918Z,1.80
2023-01-03T12:14:40.132Z,2.90
2023-01-03T12:17:13.616Z,2.67
2023-01-03T12:19:45.880Z,3.60
2023-01-03T12:22:27.573Z,1.70
2023-01-03T12:25:15.341Z,2.20
2023-01-03T12:27:48.155Z,2.15
2023-01-03T12:30:33.161Z,1.88
2023-01-03T12:33:26.060Z,2.10
2023-01-03T12:36:05.679Z,1.90
2023-01-03T12:38:46.051Z,1.98
2023-01-03T12:41:22.303Z,2.05
2023-01-03T12:43:58.498Z,2.20
2023-01-03T12:46:33.194Z,1.58
2023-01-03T12:49:09.217Z,2.40
2023-01-03T12:51:36.604Z,2.20
2023-01-03T12:54:21.821Z,3.03
2023-01-03T12:57:24.744Z,2.60
2023-01-03T13:00:17.430Z,2.60
2023-01-03T13:02:55.031Z,2.72
2023-01-03T13:05:50.469Z,2.50
2023-01-03T13:08:30.114Z,2.28
2023-01-03T13:11:04.646Z,2.60
2023-01-03T13:13:33.180Z,2.25
2023-01-03T13:16:20.796Z,2.90
2023-01-03T13:18:47.960Z,2.40
2023-01-03T13:21:53.504Z,4.38
2023-01-03T13:24:38.927Z,2.60
2023-01-03T13:27:20.486Z,2.55
2023-01-03T13:29:50.507Z,3.38
2023-01-03T13:32:26.271Z,8.07
2023-01-03T13:34:59.014Z,5.10
2023-01-03T13:37:27.694Z,3.13
2023-01-03T13:40:17.162Z,3.38
2023-01-03T13:42:45.181Z,2.90
2023-01-03T13:45:30.676Z,3.72
2023-01-03T13:48:08.536Z,3.20
2023-01-03T13:50:37.542Z,3.17
2023-01-03T13:53:24.815Z,3.08
2023-01-03T13:56:00.477Z,3.10
2023-01-03T13:58:46.388Z,3.30
2023-01-03T14:01:29.285Z,3.10
2023-01-03T14:04:17.598Z,4.00
2023-01-03T14:07:02.853Z,2.97
2023-01-03T14:09:52.172Z,2.83
2023-01-03T14:12:53.204Z,6.22
2023-01-03T14:15:26.271Z,2.72
2023-01-03T14:18:20.969Z,2.88
2023-01-03T14:20:52.580Z,2.90
2023-01-03T14:23:58.274Z,3.28
2023-01-03T14:26:16.769Z,3.05
2023-01-03T14:28:49.540Z,5.07
2023-01-03T14:31:27.577Z,3.58
2023-01-03T14:34:03.488Z,2.95
2023-01-03T14:36:31.221Z,3.00
2023-01-03T14:39:01.736Z,3.78
2023-01-03T14:41:39.064Z,3.63
2023-01-03T14:44:12.095Z,3.42
2023-01-03T14:46:47.986Z,3.78
2023-01-03T14:49:20.307Z,3.40
2023-01-03T14:51:48.044Z,3.55
2023-01-03T14:54:17.594Z,3.30
2023-01-03T14:56:46.790Z,3.85
2023-01-03T14:59:19.333Z,3.70
2023-01-03T15:01:48.135Z,4.65
2023-01-03T15:04:17.056Z,3.90
2023-01-03T15:07:09.576Z,3.75
2023-01-03T15:09:40.116Z,5.57
2023-01-03T15:12:07.991Z,4.15
2023-01-03T15:14:39.211Z,4.78
2023-01-03T15:17:13.161Z,3.80
2023-01-03T15:19:47.902Z,4.82
2023-01-03T15:22:21.247Z,4.60
2023-01-03T15:24:53.818Z,6.60
2023-01-03T15:27:39.691Z,5.35
2023-01-03T15:30:16.080Z,9.90
2023-01-03T15:32:56.184Z,15.07
2023-01-03T15:35:28.324Z,6.03
2023-01-03T15:37:56.687Z,5.68
2023-01-03T15:40:24.333Z,5.55
2023-01-03T15:43:10.789Z,6.22
2023-01-03T15:45:40.960Z,7.88
2023-01-03T15:48:14.460Z,7.05
2023-01-03T15:50:49.762Z,10.32
2023-01-03T15:53:25.068Z,9.63
2023-01-03T15:55:58.934Z,7.93
2023-01-03T15:58:27.998Z,7.38
2023-01-03T16:00:55.323Z,9.63
2023-01-03T16:03:25.762Z,12.73
2023-01-03T16:05:53.003Z,22.58
2023-01-03T16:08:26.919Z,7.57
2023-01-03T16:10:55.149Z,7.00
2023-01-03T16:13:25.089Z,6.85
2023-01-03T16:15:53.382Z,5.80
2023-01-03T16:18:26.806Z,6.60
2023-01-03T16:20:56.207Z,12.80
2023-01-03T16:23:30.405Z,6.65
2023-01-03T16:25:58.020Z,7.43
2023-01-03T16:28:26.508Z,6.95
2023-01-03T16:31:15.549Z,8.82
2023-01-03T16:33:43.998Z,6.90
2023-01-03T16:36:39.454Z,8.02
2023-01-03T16:39:17.726Z,7.75
2023-01-03T16:42:06.039Z,7.75
2023-01-03T16:44:35.416Z,8.70
2023-01-03T16:47:06.521Z,14.13
2023-01-03T16:49:36.134Z,20.63
2023-01-03T16:52:03.920Z,15.00
2023-01-03T16:54:31.508Z,5.78
2023-01-03T16:56:58.904Z,12.60
2023-01-03T16:59:26.381Z,5.65
2023-01-03T17:01:53.764Z,8.93
2023-01-03T17:04:21.336Z,7.93
2023-01-03T17:06:48.647Z,8.40
2023-01-03T17:09:22.697Z,5.40
2023-01-03T17:11:49.925Z,12.63
2023-01-03T17:14:20.044Z,4.97
2023-01-03T17:16:48.204Z,6.03
2023-01-03T17:22:18.748Z,7.38
2023-01-03T17:24:46.701Z,5.00
2023-01-03T17:27:31.762Z,6.03
2023-01-03T17:30:04.613Z,5.78
2023-01-03T17:32:32.113Z,12.45
2023-01-03T17:34:59.675Z,7.00
2023-01-03T17:37:27.083Z,6.65
2023-01-03T17:39:57.211Z,5.82
2023-01-03T17:42:25.733Z,5.78
2023-01-03T17:45:22.668Z,6.30
2023-01-03T17:48:08.132Z,6.28
2023-01-03T17:50:35.575Z,5.70
2023-01-03T17:53:02.869Z,6.07
2023-01-03T17:55:31.038Z,6.60
2023-01-03T17:58:01.437Z,5.45
2023-01-03T18:00:30.239Z,7.40
2023-01-03T18:03:00.371Z,5.07
2023-01-03T18:05:29.935Z,4.65
2023-01-03T18:08:00.964Z,6.90
2023-01-03T18:10:43.477Z,12.00
2023-01-03T18:13:22.988Z,6.00
2023-01-03T18:15:51.095Z,6.22
2023-01-03T18:18:20.779Z,6.93
2023-01-03T18:20:48.994Z,9.43
2023-01-03T18:23:17.973Z,12.57
2023-01-03T18:25:45.856Z,5.53
2023-01-03T18:28:17.430Z,5.63
2023-01-03T18:30:44.672Z,13.25
2023-01-03T18:33:12.092Z,4.32
2023-01-03T18:35:39.485Z,6.22
2023-01-03T18:38:07.375Z,5.80
2023-01-03T18:40:42.083Z,5.32
2023-01-03T18:43:15.286Z,6.53
2023-01-03T18:45:42.588Z,11.68
2023-01-03T18:48:22.091Z,12.55
2023-01-03T18:50:57.953Z,9.68
2023-01-03T18:53:31.179Z,12.88
2023-01-03T18:55:59.714Z,7.05
2023-01-03T18:58:39.821Z,7.55
2023-01-03T19:01:07.363Z,9.05
2023-01-03T19:03:35.730Z,13.65
2023-01-03T19:06:06.369Z,5.85
2023-01-03T19:08:34.168Z,6.78
2023-01-03T19:11:08.538Z,6.65
2023-01-03T19:13:50.510Z,11.48
2023-01-03T19:16:23.297Z,13.68
2023-01-03T19:18:51.338Z,11.50
2023-01-03T19:21:21.549Z,6.97
2023-01-03T19:23:56.945Z,6.03
2023-01-03T19:26:44.695Z,7.10
2023-01-03T19:29:22.541Z,5.13
2023-01-03T19:31:52.742Z,7.55
2023-01-03T19:34:22.842Z,5.70
2023-01-03T19:36:50.335Z,5.72
2023-01-03T19:39:24.430Z,5.35
2023-01-03T19:42:17.113Z,7.72
2023-01-03T19:44:44.912Z,6.75
2023-01-03T19:47:17.663Z,6.30
2023-01-03T19:49:50.026Z,5.50
2023-01-03T19:52:18.119Z,6.40
2023-01-03T19:54:45.681Z,7.05
2023-01-03T19:57:22.876Z,6.13
2023-01-03T19:59:54.377Z,4.95
2023-01-03T20:02:37.810Z,11.90
2023-01-03T20:05:15.634Z,10.10
2023-01-03T20:07:43.087Z,5.65
2023-01-03T20:10:22.134Z,5.90
2023-01-03T20:12:53.456Z,6.88
2023-01-03T20:15:32.320Z,5.55
2023-01-03T20:17:59.904Z,5.80
2023-01-03T20:20:32.470Z,5.88
2023-01-03T20:23:07.915Z,6.50
2023-01-03T20:25:37.145Z,5.07
2023-01-03T20:28:05.331Z,5.75
2023-01-03T20:30:33.982Z,10.70
2023-01-03T20:33:01.326Z,6.57
2023-01-03T20:38:24.899Z,6.50
2023-01-03T20:40:53.587Z,7.65
2023-01-03T20:43:21.087Z,13.90
2023-01-03T20:45:53.673Z,6.53
2023-01-03T20:48:25.437Z,5.50
2023-01-03T20:50:53.573Z,5.78
2023-01-03T20:53:25.661Z,5.40
2023-01-03T20:55:53.634Z,5.57
2023-01-03T20:58:27.753Z,5.32
2023-01-03T21:01:04.254Z,4.40
2023-01-03T21:03:33.729Z,4.72
2023-01-03T21:06:02.409Z,4.93
2023-01-03T21:08:48.605Z,5.05
2023-01-03T21:11:16.047Z,4.22
2023-01-03T21:13:43.803Z,4.50
2023-01-03T21:16:31.446Z,4.50
2023-01-03T21:19:22.920Z,6.30
2023-01-03T21:21:55.163Z,6.18
2023-01-03T21:24:24.276Z,5.07
2023-01-03T21:26:52.060Z,7.55
2023-01-03T21:29:19.319Z,4.82
2023-01-03T21:31:46.921Z,4.57
2023-01-03T21:34:19.247Z,4.78
2023-01-03T21:36:47.079Z,5.10
2023-01-03T21:39:14.514Z,4.82
2023-01-03T21:42:00.389Z,4.88
2023-01-03T21:44:27.757Z,5.32
2023-01-03T21:46:55.691Z,5.07
2023-01-03T21:49:22.818Z,5.43
2023-01-03T21:51:50.244Z,5.13
2023-01-03T21:54:17.434Z,4.97
2023-01-03T21:56:46.094Z,5.75
2023-01-03T21:59:15.323Z,4.85
2023-01-03T22:02:05.596Z,4.72
2023-01-03T22:04:33.731Z,4.82
2023-01-03T22:07:01.955Z,5.20
2023-01-03T22:09:49.219Z,4.43
2023-01-03T22:12:18.319Z,4.97
2023-01-03T22:14:46.481Z,4.35
2023-01-03T22:17:14.484Z,5.32
2023-01-03T22:19:41.745Z,5.30
2023-01-03T22:22:09.252Z,12.05
2023-01-03T22:24:36.404Z,4.68
2023-01-03T22:27:04.134Z,4.93
2023-01-03T22:29:31.241Z,4.78
2023-01-03T22:31:58.826Z,4.82
2023-01-03T22:34:26.061Z,4.30
2023-01-03T22:36:53.468Z,3.78
2023-01-03T22:39:20.535Z,4.20
2023-01-03T22:41:47.954Z,3.95
2023-01-03T22:44:15.144Z,15.55
2023-01-03T22:46:42.559Z,5.60
2023-01-03T22:49:09.810Z,5.35
2023-01-03T22:51:37.241Z,6.07
2023-01-03T22:54:04.983Z,15.18
2023-01-03T22:56:32.456Z,6.07
2023-01-03T22:58:59.698Z,15.88
2023-01-03T23:01:30.215Z,5.63
2023-01-03T23:04:03.287Z,7.78
2023-01-03T23:06:31.820Z,12.07
2023-01-03T23:08:59.390Z,4.80
2023-01-03T23:11:48.087Z,4.75
2023-01-03T23:14:19.946Z,6.35
2023-01-03T23:16:48.014Z,6.20
2023-01-03T23:19:17.947Z,8.10
2023-01-03T23:21:46.181Z,9.63
2023-01-03T23:24:15.421Z,5.50
2023-01-03T23:26:43.433Z,11.43
2023-01-03T23:29:11.959Z,5.85
2023-01-03T23:31:39.952Z,7.70
2023-01-03T23:34:08.472Z,10.52
2023-01-03T23:36:35.885Z,9.52
2023-01-03T23:39:03.219Z,5.55
2023-01-03T23:41:30.764Z,7.35
2023-01-03T23:43:57.927Z,6.82
2023-01-03T23:46:25.377Z,8.93
2023-01-03T23:48:57.172Z,6.13
2023-01-03T23:51:25.209Z,7.40
2023-01-03T23:53:53.409Z,5.40
2023-01-03T23:56:23.310Z,5.07
2023-01-03T23:58:51.118Z,5.13
